KNLC

Lemoore NAS (Reeves Field) Airport

Lemoore, California, USA
METAR KNLC 220356Z AUTO 30010KT 10SM CLR 07/04 A3024 RMK AO2 SLP240 T00720039
Observed Flight Rules
Jan-22 @ 03:56 UTC (45 minutes ago) Visual Flight Rules
Wind Visibility Clouds
300° at 10 knots 10 miles
  • Clear skies
Temperatures Readings
Current 7°C / 45°F
Dewpoint 4°C / 39°F
Humidity 81%
Altimeter 30.24" Hg
Pressure 1024 hPa
Elevation 72
METAR KNLC 220356Z AUTO 30010KT 10SM CLR 07/04 A3024 RMK AO2 SLP240 T00720039
Observed Flight Rules
Jan-22 @ 03:56 UTC
(45 minutes ago)
VFR
Wind Visibility
300° at 10 knots 10 miles
Clouds
  • Clear skies
Temperature Dewpoint
7°C / 45°F 4°C / 39°F
Humidity Altimeter Pressure
81% 30.24" Hg 1024 hPa